JST201 YSSY-NZAA
Flight info
| Callsign | JST201 |
|---|---|
| Flight time | N/A |
| Altitude | 37000 |
| Route | TESAT L521 AA |
| Aircraft | A320/M-SDE3FGHIRWY/LB1 |
Departure
| Time | 2026-05-05 23:14 |
|---|---|
| Airport | Sydney Kingsford Smith International Airport (YSSY) |
Arrival
| Time | N/A |
|---|---|
| Airport | Auckland International Airport (NZAA) |
| Time | Latitude | Longitude | Altitude | Speed | Heading |
|---|---|---|---|---|---|
| 2026-05-05 22:11 | -33.93524 | 151.17764 | 30 ft | 0 kts | 279° |
| 2026-05-05 23:01 | -33.93524 | 151.17767 | 30 ft | 3 kts | 279° |
| 2026-05-05 23:01 | -33.93527 | 151.17799 | 30 ft | 4 kts | 265° |
| 2026-05-05 23:01 | -33.93521 | 151.17829 | 30 ft | 4 kts | 232° |
| 2026-05-05 23:01 | -33.93506 | 151.17841 | 30 ft | 1 kts | 190° |
| 2026-05-05 23:02 | -33.93503 | 151.17842 | 30 ft | 0 kts | 190° |
| 2026-05-05 23:04 | -33.93515 | 151.17839 | 30 ft | 3 kts | 190° |
| 2026-05-05 23:04 | -33.93539 | 151.17834 | 30 ft | 4 kts | 190° |
| 2026-05-05 23:04 | -33.93576 | 151.17826 | 30 ft | 6 kts | 190° |
| 2026-05-05 23:05 | -33.93626 | 151.17815 | 30 ft | 8 kts | 190° |
| 2026-05-05 23:05 | -33.93688 | 151.17800 | 30 ft | 10 kts | 193° |
| 2026-05-05 23:05 | -33.93764 | 151.17778 | 30 ft | 12 kts | 193° |
| 2026-05-05 23:05 | -33.93854 | 151.17767 | 30 ft | 14 kts | 171° |
| 2026-05-05 23:06 | -33.93957 | 151.17794 | 29 ft | 16 kts | 167° |
| 2026-05-05 23:06 | -33.94077 | 151.17825 | 29 ft | 18 kts | 167° |
| 2026-05-05 23:06 | -33.94206 | 151.17859 | 30 ft | 20 kts | 168° |
| 2026-05-05 23:06 | -33.94347 | 151.17895 | 30 ft | 22 kts | 168° |
| 2026-05-05 23:07 | -33.94481 | 151.17885 | 30 ft | 15 kts | 204° |
| 2026-05-05 23:07 | -33.94586 | 151.17898 | 30 ft | 16 kts | 167° |
| 2026-05-05 23:07 | -33.94698 | 151.17928 | 30 ft | 17 kts | 167° |
| 2026-05-05 23:07 | -33.94819 | 151.17961 | 30 ft | 19 kts | 168° |
| 2026-05-05 23:08 | -33.94953 | 151.17994 | 30 ft | 21 kts | 167° |
| 2026-05-05 23:08 | -33.95098 | 151.18033 | 30 ft | 22 kts | 167° |
| 2026-05-05 23:08 | -33.95167 | 151.18076 | 30 ft | 11 kts | 120° |
| 2026-05-05 23:08 | -33.95161 | 151.18175 | 30 ft | 13 kts | 77° |
| 2026-05-05 23:09 | -33.95140 | 151.18286 | 30 ft | 15 kts | 77° |
| 2026-05-05 23:09 | -33.95117 | 151.18414 | 30 ft | 16 kts | 77° |
| 2026-05-05 23:09 | -33.95124 | 151.18552 | 30 ft | 18 kts | 126° |
| 2026-05-05 23:09 | -33.95220 | 151.18659 | 30 ft | 20 kts | 139° |
| 2026-05-05 23:10 | -33.95348 | 151.18729 | 30 ft | 22 kts | 168° |
| 2026-05-05 23:10 | -33.95502 | 151.18767 | 30 ft | 24 kts | 168° |
| 2026-05-05 23:10 | -33.95668 | 151.18811 | 30 ft | 25 kts | 167° |
| 2026-05-05 23:10 | -33.95846 | 151.18858 | 30 ft | 27 kts | 168° |
| 2026-05-05 23:11 | -33.96036 | 151.18906 | 30 ft | 29 kts | 167° |
| 2026-05-05 23:11 | -33.96236 | 151.18961 | 30 ft | 30 kts | 167° |
| 2026-05-05 23:11 | -33.96447 | 151.19012 | 30 ft | 32 kts | 169° |
| 2026-05-05 23:11 | -33.96663 | 151.19067 | 30 ft | 24 kts | 167° |
| 2026-05-05 23:12 | -33.96829 | 151.19069 | 30 ft | 25 kts | 171° |
| 2026-05-05 23:12 | -33.96992 | 151.19108 | 30 ft | 13 kts | 166° |
| 2026-05-05 23:12 | -33.97087 | 151.19138 | 30 ft | 15 kts | 161° |
| 2026-05-05 23:12 | -33.97117 | 151.19248 | 29 ft | 17 kts | 78° |
| 2026-05-05 23:13 | -33.97068 | 151.19378 | 25 ft | 15 kts | 15° |
| 2026-05-05 23:13 | -33.96994 | 151.19353 | 26 ft | 0 kts | 351° |
| 2026-05-05 23:13 | -33.96992 | 151.19352 | 24 ft | 1 kts | 351° |
| 2026-05-05 23:13 | -33.96973 | 151.19349 | 24 ft | 4 kts | 351° |
| 2026-05-05 23:14 | -33.96831 | 151.19313 | 24 ft | 58 kts | 347° |
| 2026-05-05 23:14 | -33.96163 | 151.19134 | 28 ft | 133 kts | 348° |
| 2026-05-05 23:14 | -33.95076 | 151.18827 | 102 ft | 181 kts | 345° |
| 2026-05-05 23:14 | -33.93815 | 151.18487 | 744 ft | 189 kts | 346° |
| 2026-05-05 23:15 | -33.92546 | 151.18169 | 1715 ft | 185 kts | 348° |
| 2026-05-05 23:15 | -33.91276 | 151.17853 | 2305 ft | 192 kts | 349° |
| 2026-05-05 23:15 | -33.89894 | 151.17511 | 2531 ft | 214 kts | 351° |
| 2026-05-05 23:15 | -33.88367 | 151.17572 | 2797 ft | 231 kts | 19° |
| 2026-05-05 23:16 | -33.86833 | 151.18243 | 3405 ft | 238 kts | 24° |
| 2026-05-05 23:16 | -33.85342 | 151.19247 | 3907 ft | 253 kts | 45° |
| 2026-05-05 23:16 | -33.84399 | 151.21034 | 4693 ft | 258 kts | 73° |
| 2026-05-05 23:16 | -33.84296 | 151.23193 | 5524 ft | 264 kts | 101° |
| 2026-05-05 23:17 | -33.84964 | 151.25285 | 6361 ft | 271 kts | 114° |
| 2026-05-05 23:17 | -33.85824 | 151.27288 | 7112 ft | 276 kts | 116° |
| 2026-05-05 23:17 | -33.86732 | 151.29355 | 7838 ft | 282 kts | 116° |
| 2026-05-05 23:17 | -33.87664 | 151.31498 | 8579 ft | 289 kts | 116° |
| 2026-05-05 23:18 | -33.88579 | 151.33641 | 9286 ft | 294 kts | 116° |
| 2026-05-05 23:18 | -33.89519 | 151.35853 | 10060 ft | 299 kts | 118° |
| 2026-05-05 23:18 | -33.90525 | 151.38121 | 10387 ft | 319 kts | 118° |
| 2026-05-05 23:18 | -33.91624 | 151.40547 | 10599 ft | 339 kts | 119° |
| 2026-05-05 23:19 | -33.92771 | 151.43067 | 11155 ft | 346 kts | 119° |
| 2026-05-05 23:19 | -33.93933 | 151.45631 | 11800 ft | 350 kts | 118° |
| 2026-05-05 23:19 | -33.95104 | 151.48230 | 12449 ft | 354 kts | 118° |
| 2026-05-05 23:19 | -33.96283 | 151.50853 | 13097 ft | 358 kts | 118° |
| 2026-05-05 23:20 | -33.97471 | 151.53509 | 13731 ft | 362 kts | 118° |
| 2026-05-05 23:20 | -33.98670 | 151.56192 | 14324 ft | 366 kts | 118° |
| 2026-05-05 23:20 | -33.99473 | 151.57990 | 14681 ft | 368 kts | 118° |
| 2026-05-05 23:20 | -34.00692 | 151.60717 | 15236 ft | 371 kts | 118° |
| 2026-05-05 23:21 | -34.01921 | 151.63470 | 15784 ft | 375 kts | 118° |
| 2026-05-05 23:21 | -34.03160 | 151.66252 | 16322 ft | 379 kts | 118° |
| 2026-05-05 23:21 | -34.04412 | 151.69063 | 16868 ft | 382 kts | 118° |
| 2026-05-05 23:21 | -34.05676 | 151.71898 | 17419 ft | 386 kts | 118° |
| 2026-05-05 23:22 | -34.06951 | 151.74761 | 17943 ft | 389 kts | 119° |
| 2026-05-05 23:22 | -34.08239 | 151.77656 | 18479 ft | 393 kts | 119° |
| 2026-05-05 23:22 | -34.09536 | 151.80574 | 18953 ft | 396 kts | 119° |
| 2026-05-05 23:22 | -34.10846 | 151.83520 | 19435 ft | 400 kts | 119° |
| 2026-05-05 23:23 | -34.12165 | 151.86489 | 19921 ft | 403 kts | 119° |
| 2026-05-05 23:23 | -34.13493 | 151.89480 | 20413 ft | 406 kts | 119° |
| 2026-05-05 23:23 | -34.14834 | 151.92497 | 20884 ft | 409 kts | 118° |
| 2026-05-05 23:23 | -34.16178 | 151.95539 | 21329 ft | 412 kts | 118° |
| 2026-05-05 23:24 | -34.17531 | 151.98608 | 21767 ft | 415 kts | 118° |
| 2026-05-05 23:24 | -34.18894 | 152.01697 | 22206 ft | 418 kts | 118° |
| 2026-05-05 23:24 | -34.20059 | 152.04932 | 22635 ft | 422 kts | 109° |
| 2026-05-05 23:24 | -34.21029 | 152.08288 | 23068 ft | 425 kts | 109° |
| 2026-05-05 23:25 | -34.22010 | 152.11669 | 23502 ft | 428 kts | 109° |
| 2026-05-05 23:25 | -34.23003 | 152.15077 | 23897 ft | 431 kts | 109° |
| 2026-05-05 23:25 | -34.24000 | 152.18501 | 24259 ft | 433 kts | 109° |
| 2026-05-05 23:25 | -34.25004 | 152.21946 | 24623 ft | 436 kts | 109° |
| 2026-05-05 23:26 | -34.26014 | 152.25409 | 24991 ft | 438 kts | 109° |
| 2026-05-05 23:26 | -34.27023 | 152.28892 | 25354 ft | 440 kts | 109° |
| 2026-05-05 23:26 | -34.28035 | 152.32395 | 25714 ft | 442 kts | 109° |
| 2026-05-05 23:26 | -34.29052 | 152.35915 | 26073 ft | 445 kts | 109° |
| 2026-05-05 23:27 | -34.30074 | 152.39453 | 26430 ft | 447 kts | 109° |
| 2026-05-05 23:27 | -34.31102 | 152.43012 | 26792 ft | 449 kts | 109° |
| 2026-05-05 23:27 | -34.32132 | 152.46586 | 27123 ft | 451 kts | 109° |
| 2026-05-05 23:27 | -34.33166 | 152.50180 | 27465 ft | 454 kts | 109° |
| 2026-05-05 23:28 | -34.34205 | 152.53792 | 27804 ft | 456 kts | 109° |
| 2026-05-05 23:28 | -34.35252 | 152.57425 | 28114 ft | 459 kts | 109° |
| 2026-05-05 23:28 | -34.36304 | 152.61087 | 28450 ft | 461 kts | 109° |
| 2026-05-05 23:28 | -34.37356 | 152.64764 | 28779 ft | 464 kts | 109° |
| 2026-05-05 23:29 | -34.38412 | 152.68462 | 29123 ft | 466 kts | 109° |
| 2026-05-05 23:29 | -34.39468 | 152.72181 | 29456 ft | 468 kts | 108° |
| 2026-05-05 23:29 | -34.40527 | 152.75923 | 29786 ft | 471 kts | 108° |
| 2026-05-05 23:29 | -34.41595 | 152.79681 | 30114 ft | 473 kts | 108° |
| 2026-05-05 23:30 | -34.42656 | 152.83406 | 30447 ft | 474 kts | 108° |
| 2026-05-05 23:30 | -34.43733 | 152.87186 | 30778 ft | 475 kts | 108° |
| 2026-05-05 23:30 | -34.44811 | 152.90979 | 31105 ft | 476 kts | 108° |
| 2026-05-05 23:30 | -34.45885 | 152.94777 | 31452 ft | 476 kts | 108° |
| 2026-05-05 23:31 | -34.46960 | 152.98578 | 31806 ft | 477 kts | 108° |
| 2026-05-05 23:31 | -34.48033 | 153.02380 | 32161 ft | 477 kts | 108° |
| 2026-05-05 23:31 | -34.49106 | 153.06186 | 32522 ft | 477 kts | 108° |
| 2026-05-05 23:31 | -34.50177 | 153.09993 | 32882 ft | 477 kts | 108° |
| 2026-05-05 23:32 | -34.51249 | 153.13814 | 33229 ft | 478 kts | 108° |
| 2026-05-05 23:32 | -34.52321 | 153.17630 | 33571 ft | 479 kts | 108° |
| 2026-05-05 23:32 | -34.53395 | 153.21452 | 33917 ft | 479 kts | 108° |
| 2026-05-05 23:32 | -34.54467 | 153.25285 | 34258 ft | 479 kts | 108° |
| 2026-05-05 23:33 | -34.55539 | 153.29119 | 34547 ft | 480 kts | 108° |
| 2026-05-05 23:33 | -34.56613 | 153.32951 | 34820 ft | 480 kts | 108° |
| 2026-05-05 23:33 | -34.57678 | 153.36756 | 35085 ft | 481 kts | 108° |
| 2026-05-05 23:33 | -34.58751 | 153.40603 | 35339 ft | 481 kts | 108° |
| 2026-05-05 23:34 | -34.59822 | 153.44453 | 35592 ft | 482 kts | 108° |
| 2026-05-05 23:34 | -34.60897 | 153.48311 | 35855 ft | 482 kts | 108° |
| 2026-05-05 23:34 | -34.61971 | 153.52169 | 36111 ft | 482 kts | 108° |
| 2026-05-05 23:34 | -34.63042 | 153.56028 | 36357 ft | 483 kts | 107° |
| 2026-05-05 23:35 | -34.64108 | 153.59897 | 36596 ft | 483 kts | 107° |
| 2026-05-05 23:35 | -34.65174 | 153.63771 | 36825 ft | 484 kts | 107° |
| 2026-05-05 23:35 | -34.66242 | 153.67653 | 37053 ft | 484 kts | 107° |
| 2026-05-05 23:35 | -34.67309 | 153.71540 | 37174 ft | 486 kts | 107° |
| 2026-05-05 23:36 | -34.69469 | 153.79390 | 37198 ft | 492 kts | 107° |
| 2026-05-05 23:36 | -34.71638 | 153.87294 | 37183 ft | 493 kts | 107° |
| 2026-05-05 23:37 | -34.73801 | 153.95208 | 37195 ft | 493 kts | 107° |
| 2026-05-05 23:37 | -34.75960 | 154.03119 | 37200 ft | 493 kts | 107° |
| 2026-05-05 23:38 | -34.78117 | 154.11038 | 37202 ft | 493 kts | 107° |
| 2026-05-05 23:38 | -34.80267 | 154.18964 | 37199 ft | 493 kts | 107° |
| 2026-05-05 23:39 | -34.82408 | 154.26895 | 37195 ft | 493 kts | 107° |
| 2026-05-05 23:39 | -34.84526 | 154.34784 | 37199 ft | 493 kts | 107° |
| 2026-05-05 23:40 | -34.86657 | 154.42735 | 37189 ft | 493 kts | 107° |
| 2026-05-05 23:40 | -34.88788 | 154.50675 | 37193 ft | 493 kts | 107° |
| 2026-05-05 23:41 | -34.90912 | 154.58628 | 37193 ft | 494 kts | 107° |
| 2026-05-05 23:41 | -34.93034 | 154.66602 | 37200 ft | 494 kts | 107° |
| 2026-05-05 23:42 | -34.95151 | 154.74570 | 37189 ft | 494 kts | 106° |
| 2026-05-05 23:42 | -34.97272 | 154.82557 | 37196 ft | 494 kts | 106° |
| 2026-05-05 23:43 | -34.99374 | 154.90534 | 37196 ft | 494 kts | 106° |
| 2026-05-05 23:43 | -35.01464 | 154.98517 | 37205 ft | 494 kts | 106° |
| 2026-05-05 23:44 | -35.03553 | 155.06472 | 37198 ft | 494 kts | 106° |
| 2026-05-05 23:44 | -35.05645 | 155.14459 | 37200 ft | 494 kts | 106° |
| 2026-05-05 23:45 | -35.07733 | 155.22469 | 37210 ft | 494 kts | 106° |
| 2026-05-05 23:45 | -35.09808 | 155.30454 | 37206 ft | 493 kts | 106° |
| 2026-05-05 23:46 | -35.11880 | 155.38448 | 37208 ft | 493 kts | 106° |
| 2026-05-05 23:46 | -35.13945 | 155.46434 | 37202 ft | 493 kts | 105° |
| 2026-05-05 23:47 | -35.15995 | 155.54424 | 37200 ft | 493 kts | 105° |
| 2026-05-05 23:47 | -35.18027 | 155.62362 | 37194 ft | 493 kts | 105° |
| 2026-05-05 23:48 | -35.20076 | 155.70361 | 37197 ft | 493 kts | 105° |
| 2026-05-05 23:48 | -35.22116 | 155.78357 | 37195 ft | 493 kts | 105° |
| 2026-05-05 23:49 | -35.24149 | 155.86363 | 37194 ft | 493 kts | 105° |
| 2026-05-05 23:49 | -35.26181 | 155.94367 | 37177 ft | 492 kts | 105° |
| 2026-05-05 23:50 | -35.28206 | 156.02376 | 37181 ft | 493 kts | 105° |
| 2026-05-05 23:50 | -35.30224 | 156.10392 | 37184 ft | 493 kts | 105° |
| 2026-05-05 23:51 | -35.32238 | 156.18418 | 37182 ft | 493 kts | 105° |
| 2026-05-05 23:51 | -35.34241 | 156.26394 | 37182 ft | 493 kts | 105° |
| 2026-05-05 23:52 | -35.36250 | 156.34427 | 37184 ft | 493 kts | 105° |
| 2026-05-05 23:52 | -35.38249 | 156.42462 | 37182 ft | 493 kts | 105° |
| 2026-05-05 23:53 | -35.40242 | 156.50506 | 37178 ft | 493 kts | 105° |
| 2026-05-05 23:53 | -35.42229 | 156.58542 | 37167 ft | 493 kts | 104° |
| 2026-05-05 23:54 | -35.44203 | 156.66590 | 37162 ft | 493 kts | 104° |
| 2026-05-05 23:54 | -35.46181 | 156.74650 | 37164 ft | 493 kts | 104° |
| 2026-05-05 23:55 | -35.48156 | 156.82710 | 37163 ft | 493 kts | 104° |
| 2026-05-05 23:55 | -35.50117 | 156.90736 | 37159 ft | 493 kts | 104° |
| 2026-05-05 23:56 | -35.52086 | 156.98801 | 37159 ft | 493 kts | 104° |
| 2026-05-05 23:56 | -35.54047 | 157.06879 | 37161 ft | 493 kts | 104° |
| 2026-05-05 23:57 | -35.56004 | 157.14957 | 37158 ft | 494 kts | 104° |
| 2026-05-05 23:57 | -35.57950 | 157.23047 | 37141 ft | 494 kts | 104° |
| 2026-05-05 23:58 | -35.59888 | 157.31144 | 37147 ft | 494 kts | 104° |
| 2026-05-05 23:58 | -35.61815 | 157.39211 | 37153 ft | 494 kts | 104° |
| 2026-05-05 23:59 | -35.63749 | 157.47320 | 37155 ft | 494 kts | 104° |
| 2026-05-05 23:59 | -35.65685 | 157.55427 | 37143 ft | 494 kts | 104° |
| 2026-05-06 00:00 | -35.67610 | 157.63537 | 37149 ft | 494 kts | 104° |
| 2026-05-06 00:00 | -35.69527 | 157.71660 | 37149 ft | 494 kts | 104° |
| 2026-05-06 00:01 | -35.71437 | 157.79789 | 37155 ft | 494 kts | 104° |
| 2026-05-06 00:01 | -35.73335 | 157.87873 | 37142 ft | 494 kts | 103° |
| 2026-05-06 00:02 | -35.75239 | 157.96002 | 37151 ft | 494 kts | 103° |
| 2026-05-06 00:02 | -35.77135 | 158.04142 | 37150 ft | 494 kts | 103° |
| 2026-05-06 00:03 | -35.78917 | 158.12316 | 37157 ft | 493 kts | 100° |
| 2026-05-06 00:03 | -35.80348 | 158.20581 | 37150 ft | 492 kts | 98° |
| 2026-05-06 00:04 | -35.81650 | 158.28860 | 37156 ft | 492 kts | 98° |
| 2026-05-06 00:04 | -35.82776 | 158.35748 | 37157 ft | 493 kts | 98° |
| 2026-05-06 00:05 | -35.85138 | 158.49484 | 37158 ft | 493 kts | 99° |
| 2026-05-06 00:06 | -35.86308 | 158.56361 | 37157 ft | 493 kts | 98° |
| 2026-05-06 00:06 | -35.87700 | 158.64631 | 37154 ft | 493 kts | 98° |
| 2026-05-06 00:07 | -35.89082 | 158.72903 | 37154 ft | 493 kts | 98° |
| 2026-05-06 00:07 | -35.90463 | 158.81175 | 37154 ft | 492 kts | 98° |
| 2026-05-06 00:08 | -35.91831 | 158.89453 | 37141 ft | 492 kts | 98° |
| 2026-05-06 00:08 | -35.93197 | 158.97728 | 37149 ft | 492 kts | 98° |
| 2026-05-06 00:09 | -35.94566 | 159.06001 | 37147 ft | 491 kts | 98° |
| 2026-05-06 00:09 | -35.95931 | 159.14263 | 37142 ft | 491 kts | 98° |
| 2026-05-06 00:10 | -35.97278 | 159.22527 | 37136 ft | 491 kts | 98° |
| 2026-05-06 00:10 | -35.98606 | 159.30734 | 37141 ft | 490 kts | 98° |
| 2026-05-06 00:11 | -35.99935 | 159.38990 | 37140 ft | 490 kts | 98° |
| 2026-05-06 00:11 | -36.01253 | 159.47239 | 37136 ft | 489 kts | 98° |
| 2026-05-06 00:12 | -36.02576 | 159.55488 | 37127 ft | 489 kts | 98° |
| 2026-05-06 00:12 | -36.03901 | 159.63727 | 37132 ft | 488 kts | 98° |
| 2026-05-06 00:13 | -36.05206 | 159.71951 | 37131 ft | 488 kts | 97° |
| 2026-05-06 00:13 | -36.06504 | 159.80184 | 37129 ft | 487 kts | 97° |
| 2026-05-06 00:14 | -36.07794 | 159.88416 | 37108 ft | 487 kts | 97° |
| 2026-05-06 00:14 | -36.09082 | 159.96641 | 37115 ft | 487 kts | 97° |
| 2026-05-06 00:15 | -36.10362 | 160.04865 | 37120 ft | 487 kts | 97° |
| 2026-05-06 00:15 | -36.11633 | 160.13090 | 37119 ft | 487 kts | 97° |
| 2026-05-06 00:16 | -36.12905 | 160.21317 | 37109 ft | 487 kts | 97° |
| 2026-05-06 00:16 | -36.14173 | 160.29552 | 37115 ft | 486 kts | 97° |
| 2026-05-06 00:17 | -36.15429 | 160.37769 | 37115 ft | 486 kts | 97° |
| 2026-05-06 00:17 | -36.16676 | 160.45991 | 37113 ft | 485 kts | 97° |
| 2026-05-06 00:18 | -36.17909 | 160.54158 | 37081 ft | 485 kts | 97° |
| 2026-05-06 00:18 | -36.19146 | 160.62365 | 37092 ft | 485 kts | 97° |
| 2026-05-06 00:19 | -36.20381 | 160.70576 | 37102 ft | 485 kts | 97° |
| 2026-05-06 00:19 | -36.21612 | 160.78782 | 37102 ft | 484 kts | 97° |
| 2026-05-06 00:20 | -36.22829 | 160.86985 | 37105 ft | 484 kts | 96° |
| 2026-05-06 00:20 | -36.24032 | 160.95198 | 37090 ft | 484 kts | 96° |
| 2026-05-06 00:21 | -36.25241 | 161.03406 | 37094 ft | 484 kts | 96° |
| 2026-05-06 00:21 | -36.26442 | 161.11613 | 37097 ft | 484 kts | 96° |
| 2026-05-06 00:22 | -36.27642 | 161.19837 | 37094 ft | 484 kts | 96° |
| 2026-05-06 00:22 | -36.28831 | 161.28051 | 37088 ft | 484 kts | 96° |
| 2026-05-06 00:23 | -36.30006 | 161.36282 | 37089 ft | 484 kts | 96° |
| 2026-05-06 00:23 | -36.31184 | 161.44505 | 37088 ft | 485 kts | 96° |
| 2026-05-06 00:24 | -36.32357 | 161.52730 | 37097 ft | 485 kts | 96° |
| 2026-05-06 00:24 | -36.33528 | 161.60959 | 37082 ft | 484 kts | 96° |
| 2026-05-06 00:25 | -36.34689 | 161.69134 | 37091 ft | 484 kts | 96° |
| 2026-05-06 00:25 | -36.35847 | 161.77367 | 37093 ft | 484 kts | 96° |
| 2026-05-06 00:26 | -36.36989 | 161.85595 | 37094 ft | 484 kts | 96° |
| 2026-05-06 00:26 | -36.38133 | 161.93824 | 37095 ft | 484 kts | 96° |
| 2026-05-06 00:27 | -36.39277 | 162.02054 | 37094 ft | 484 kts | 96° |
| 2026-05-06 00:27 | -36.40408 | 162.10292 | 37094 ft | 484 kts | 96° |
| 2026-05-06 00:28 | -36.41533 | 162.18540 | 37093 ft | 484 kts | 96° |
| 2026-05-06 00:28 | -36.42654 | 162.26779 | 37082 ft | 484 kts | 96° |
| 2026-05-06 00:29 | -36.43764 | 162.35019 | 37092 ft | 483 kts | 96° |
| 2026-05-06 00:29 | -36.44875 | 162.43258 | 37095 ft | 483 kts | 96° |
| 2026-05-06 00:30 | -36.45975 | 162.51425 | 37098 ft | 483 kts | 96° |
| 2026-05-06 00:30 | -36.47073 | 162.59656 | 37096 ft | 482 kts | 96° |
| 2026-05-06 00:31 | -36.48159 | 162.67881 | 37086 ft | 482 kts | 96° |
| 2026-05-06 00:31 | -36.49244 | 162.76115 | 37090 ft | 482 kts | 96° |
| 2026-05-06 00:32 | -36.50326 | 162.84344 | 37095 ft | 482 kts | 96° |
| 2026-05-06 00:32 | -36.51390 | 162.92581 | 37095 ft | 482 kts | 95° |
| 2026-05-06 00:33 | -36.52451 | 163.00827 | 37099 ft | 483 kts | 96° |
| 2026-05-06 00:33 | -36.53511 | 163.09078 | 37103 ft | 483 kts | 96° |
| 2026-05-06 00:34 | -36.54568 | 163.17307 | 37089 ft | 481 kts | 95° |
| 2026-05-06 00:34 | -36.55616 | 163.25525 | 37094 ft | 481 kts | 95° |
| 2026-05-06 00:35 | -36.56654 | 163.33754 | 37081 ft | 482 kts | 95° |
| 2026-05-06 00:35 | -36.57686 | 163.41998 | 37083 ft | 483 kts | 95° |
| 2026-05-06 00:36 | -36.58717 | 163.50262 | 37092 ft | 483 kts | 95° |
| 2026-05-06 00:36 | -36.59737 | 163.58480 | 37100 ft | 484 kts | 95° |
| 2026-05-06 00:37 | -36.60763 | 163.66763 | 37103 ft | 483 kts | 95° |
| 2026-05-06 00:37 | -36.61777 | 163.75036 | 37104 ft | 484 kts | 95° |
| 2026-05-06 00:38 | -36.62795 | 163.83343 | 37106 ft | 484 kts | 95° |
| 2026-05-06 00:38 | -36.63807 | 163.91636 | 37111 ft | 484 kts | 95° |
| 2026-05-06 00:39 | -36.64809 | 163.99929 | 37115 ft | 485 kts | 95° |
| 2026-05-06 00:39 | -36.65807 | 164.08236 | 37115 ft | 485 kts | 95° |
| 2026-05-06 00:40 | -36.66785 | 164.16496 | 37115 ft | 485 kts | 95° |